Dinosaur, Colorado
Current Conditions -  °F | °C
As of 10:53 AM on Thursday 27 Nov 2014 (Local Time) from KVEL Reporting Station
Clear Clear  
Wind Chill: 46°   Ceiling: Unl
Heat Index: 46°   Visibility: 10mi
Dew Point: 25°   Wind: 0mph
Humidity: 44%   Direction: NA
Pressure: 30.4"   Gusts: NA
Location:  40.24°N, 109.01°W
Report Text: KVEL 271753Z AUTO 00000KT 10SM CLR 08/M04 A3040 RMK AO2 SLP295 T00781039 10078 21033 58003
Loading
Personal Weather Stations






























Interactive Weather Map New forecast layout! Learn more

10-Day Weather Forecast

Advertisements
Track Severe Weather on mobile